sensor_id;sensor_type;location;lat;lon;timestamp;temperature;humidity
56861;DHT22;42744;51.094;3.490;2023-03-01T00:08:16;-1.10;99.90
56861;DHT22;42744;51.094;3.490;2023-03-01T00:14:20;-1.10;99.90
56861;DHT22;42744;51.094;3.490;2023-03-01T00:17:31;-1.10;99.90
56861;DHT22;42744;51.094;3.490;2023-03-01T00:20:27;-1.10;99.90
56861;DHT22;42744;51.094;3.490;2023-03-01T00:23:25;-1.10;99.90
56861;DHT22;42744;51.094;3.490;2023-03-01T00:26:29;-1.10;99.90
56861;DHT22;42744;51.094;3.490;2023-03-01T00:29:15;-1.10;99.90
56861;DHT22;42744;51.094;3.490;2023-03-01T00:31:44;-1.10;99.90
56861;DHT22;42744;51.094;3.490;2023-03-01T00:34:22;-1.10;99.90
56861;DHT22;42744;51.094;3.490;2023-03-01T00:37:12;-1.10;99.90
56861;DHT22;42744;51.094;3.490;2023-03-01T00:40:23;-1.10;99.90
56861;DHT22;42744;51.094;3.490;2023-03-01T00:43:23;-1.20;99.90
56861;DHT22;42744;51.094;3.490;2023-03-01T00:50:19;-1.10;99.90
56861;DHT22;42744;51.094;3.490;2023-03-01T00:53:47;-1.10;99.90
56861;DHT22;42744;51.094;3.490;2023-03-01T01:26:27;-1.10;99.90
56861;DHT22;42744;51.094;3.490;2023-03-01T01:29:48;-1.10;99.90
56861;DHT22;42744;51.094;3.490;2023-03-01T01:36:41;-1.10;99.90
56861;DHT22;42744;51.094;3.490;2023-03-01T01:39:41;-1.10;99.90
56861;DHT22;42744;51.094;3.490;2023-03-01T02:29:30;-1.60;99.90
56861;DHT22;42744;51.094;3.490;2023-03-01T02:32:50;-1.60;99.90
56861;DHT22;42744;51.094;3.490;2023-03-01T02:35:45;-1.60;99.90
56861;DHT22;42744;51.094;3.490;2023-03-01T02:38:51;-1.60;99.90
56861;DHT22;42744;51.094;3.490;2023-03-01T02:42:02;-1.60;99.90
56861;DHT22;42744;51.094;3.490;2023-03-01T02:48:03;-1.50;99.90
56861;DHT22;42744;51.094;3.490;2023-03-01T03:00:14;-1.60;99.90
56861;DHT22;42744;51.094;3.490;2023-03-01T03:10:40;-1.60;99.90
56861;DHT22;42744;51.094;3.490;2023-03-01T03:13:14;-1.60;99.90
56861;DHT22;42744;51.094;3.490;2023-03-01T03:16:21;-1.60;99.90
56861;DHT22;42744;51.094;3.490;2023-03-01T03:19:20;-1.60;99.90
56861;DHT22;42744;51.094;3.490;2023-03-01T03:21:58;-1.70;99.90
56861;DHT22;42744;51.094;3.490;2023-03-01T03:25:09;-1.60;99.90
56861;DHT22;42744;51.094;3.490;2023-03-01T03:28:40;-1.60;99.90
56861;DHT22;42744;51.094;3.490;2023-03-01T03:31:19;-1.60;99.90
56861;DHT22;42744;51.094;3.490;2023-03-01T03:34:18;-1.60;99.90
56861;DHT22;42744;51.094;3.490;2023-03-01T03:48:44;-1.60;99.90
56861;DHT22;42744;51.094;3.490;2023-03-01T03:51:34;-1.60;99.90
56861;DHT22;42744;51.094;3.490;2023-03-01T03:57:49;-1.60;99.90
56861;DHT22;42744;51.094;3.490;2023-03-01T04:04:57;-1.60;99.90
56861;DHT22;42744;51.094;3.490;2023-03-01T04:07:34;-1.70;99.90
56861;DHT22;42744;51.094;3.490;2023-03-01T04:10:10;-1.60;99.90
56861;DHT22;42744;51.094;3.490;2023-03-01T04:13:09;-1.60;99.90
56861;DHT22;42744;51.094;3.490;2023-03-01T04:23:20;-1.70;99.90
56861;DHT22;42744;51.094;3.490;2023-03-01T04:26:25;-1.70;99.90
56861;DHT22;42744;51.094;3.490;2023-03-01T04:29:45;-1.70;99.90
56861;DHT22;42744;51.094;3.490;2023-03-01T04:36:18;-1.70;99.90
56861;DHT22;42744;51.094;3.490;2023-03-01T04:39:19;-1.80;99.90
56861;DHT22;42744;51.094;3.490;2023-03-01T04:42:07;-1.80;99.90
56861;DHT22;42744;51.094;3.490;2023-03-01T04:45:21;-1.80;99.90
56861;DHT22;42744;51.094;3.490;2023-03-01T04:48:49;-1.80;99.90
56861;DHT22;42744;51.094;3.490;2023-03-01T05:10:59;-2.00;99.90
56861;DHT22;42744;51.094;3.490;2023-03-01T05:13:58;-2.00;99.90
56861;DHT22;42744;51.094;3.490;2023-03-01T05:16:57;-2.00;99.90
56861;DHT22;42744;51.094;3.490;2023-03-01T05:19:53;-2.00;99.90
56861;DHT22;42744;51.094;3.490;2023-03-01T05:23:04;-2.00;99.90
56861;DHT22;42744;51.094;3.490;2023-03-01T05:26:00;-2.00;99.90
56861;DHT22;42744;51.094;3.490;2023-03-01T05:32:35;-2.00;99.90
56861;DHT22;42744;51.094;3.490;2023-03-01T05:38:44;-2.00;99.90
56861;DHT22;42744;51.094;3.490;2023-03-01T05:41:43;-2.00;99.90
56861;DHT22;42744;51.094;3.490;2023-03-01T05:44:20;-2.00;99.90
56861;DHT22;42744;51.094;3.490;2023-03-01T05:50:16;-2.00;99.90
56861;DHT22;42744;51.094;3.490;2023-03-01T05:53:19;-2.00;99.90
56861;DHT22;42744;51.094;3.490;2023-03-01T05:56:04;-2.00;99.90
56861;DHT22;42744;51.094;3.490;2023-03-01T05:58:49;-2.00;99.90
56861;DHT22;42744;51.094;3.490;2023-03-01T06:01:33;-2.00;99.90
56861;DHT22;42744;51.094;3.490;2023-03-01T06:04:15;-2.00;99.90
56861;DHT22;42744;51.094;3.490;2023-03-01T06:10:43;-2.20;99.90
56861;DHT22;42744;51.094;3.490;2023-03-01T06:13:46;-2.30;99.90
56861;DHT22;42744;51.094;3.490;2023-03-01T06:19:51;-2.40;99.90
56861;DHT22;42744;51.094;3.490;2023-03-01T06:33:13;-2.50;99.90
56861;DHT22;42744;51.094;3.490;2023-03-01T06:36:06;-2.50;99.90
56861;DHT22;42744;51.094;3.490;2023-03-01T06:39:11;-2.50;99.90
56861;DHT22;42744;51.094;3.490;2023-03-01T06:42:14;-2.50;99.90
56861;DHT22;42744;51.094;3.490;2023-03-01T06:45:22;-2.40;99.90
56861;DHT22;42744;51.094;3.490;2023-03-01T06:52:15;-2.50;99.90
56861;DHT22;42744;51.094;3.490;2023-03-01T06:55:01;-2.50;99.90
56861;DHT22;42744;51.094;3.490;2023-03-01T06:58:04;-2.60;99.90
56861;DHT22;42744;51.094;3.490;2023-03-01T07:00:52;-2.60;99.90
56861;DHT22;42744;51.094;3.490;2023-03-01T07:04:14;-2.60;99.90
56861;DHT22;42744;51.094;3.490;2023-03-01T07:11:04;-2.60;99.90
56861;DHT22;42744;51.094;3.490;2023-03-01T07:14:10;-2.70;99.90
56861;DHT22;42744;51.094;3.490;2023-03-01T07:17:24;-2.60;99.90
56861;DHT22;42744;51.094;3.490;2023-03-01T07:20:57;-2.60;99.90
56861;DHT22;42744;51.094;3.490;2023-03-01T07:23:52;-2.50;99.90
56861;DHT22;42744;51.094;3.490;2023-03-01T07:47:03;-2.00;99.90
56861;DHT22;42744;51.094;3.490;2023-03-01T07:50:11;-1.90;99.90
56861;DHT22;42744;51.094;3.490;2023-03-01T07:53:32;-1.80;99.90
56861;DHT22;42744;51.094;3.490;2023-03-01T08:07:06;-0.80;99.90
56861;DHT22;42744;51.094;3.490;2023-03-01T08:17:16;-0.20;99.90
56861;DHT22;42744;51.094;3.490;2023-03-01T08:34:28;1.00;99.90
56861;DHT22;42744;51.094;3.490;2023-03-01T08:40:36;1.20;99.90
56861;DHT22;42744;51.094;3.490;2023-03-01T08:43:25;1.30;99.90
56861;DHT22;42744;51.094;3.490;2023-03-01T08:46:13;1.40;99.90
56861;DHT22;42744;51.094;3.490;2023-03-01T08:49:16;1.50;99.90
56861;DHT22;42744;51.094;3.490;2023-03-01T08:52:06;1.60;99.90
56861;DHT22;42744;51.094;3.490;2023-03-01T08:54:47;1.80;99.90
56861;DHT22;42744;51.094;3.490;2023-03-01T08:57:27;1.90;99.90
56861;DHT22;42744;51.094;3.490;2023-03-01T09:00:34;2.00;99.90
56861;DHT22;42744;51.094;3.490;2023-03-01T09:03:06;2.10;99.90
56861;DHT22;42744;51.094;3.490;2023-03-01T09:05:40;2.30;99.90
56861;DHT22;42744;51.094;3.490;2023-03-01T09:08:26;2.50;99.90
56861;DHT22;42744;51.094;3.490;2023-03-01T09:11:15;2.70;99.90
56861;DHT22;42744;51.094;3.490;2023-03-01T09:14:10;2.80;99.90
56861;DHT22;42744;51.094;3.490;2023-03-01T09:17:07;2.90;99.90
56861;DHT22;42744;51.094;3.490;2023-03-01T09:19:49;3.10;99.90
56861;DHT22;42744;51.094;3.490;2023-03-01T09:23:02;3.20;99.90
56861;DHT22;42744;51.094;3.490;2023-03-01T09:32:02;3.60;99.90
56861;DHT22;42744;51.094;3.490;2023-03-01T09:44:46;4.40;99.90
56861;DHT22;42744;51.094;3.490;2023-03-01T10:02:59;4.80;99.90
56861;DHT22;42744;51.094;3.490;2023-03-01T10:11:59;5.30;99.90
56861;DHT22;42744;51.094;3.490;2023-03-01T10:35:54;6.00;99.90
56861;DHT22;42744;51.094;3.490;2023-03-01T10:38:56;6.10;99.50
56861;DHT22;42744;51.094;3.490;2023-03-01T10:42:00;6.10;97.20
56861;DHT22;42744;51.094;3.490;2023-03-01T10:48:35;6.30;96.80
56861;DHT22;42744;51.094;3.490;2023-03-01T10:51:07;6.60;97.80
56861;DHT22;42744;51.094;3.490;2023-03-01T10:57:43;6.80;96.30
56861;DHT22;42744;51.094;3.490;2023-03-01T11:00:44;6.60;95.00
56861;DHT22;42744;51.094;3.490;2023-03-01T11:03:35;6.70;95.00
56861;DHT22;42744;51.094;3.490;2023-03-01T11:06:20;6.80;95.10
56861;DHT22;42744;51.094;3.490;2023-03-01T11:09:19;6.80;93.90
56861;DHT22;42744;51.094;3.490;2023-03-01T11:12:19;6.80;93.10
56861;DHT22;42744;51.094;3.490;2023-03-01T11:22:52;7.40;93.70
56861;DHT22;42744;51.094;3.490;2023-03-01T11:26:00;7.20;93.70
56861;DHT22;42744;51.094;3.490;2023-03-01T11:44:01;8.20;91.90
56861;DHT22;42744;51.094;3.490;2023-03-01T12:24:16;8.20;90.00
56861;DHT22;42744;51.094;3.490;2023-03-01T12:47:50;8.50;89.60
56861;DHT22;42744;51.094;3.490;2023-03-01T12:57:43;8.80;90.30
56861;DHT22;42744;51.094;3.490;2023-03-01T13:13:40;9.30;87.30
56861;DHT22;42744;51.094;3.490;2023-03-01T13:36:51;8.30;87.00
56861;DHT22;42744;51.094;3.490;2023-03-01T13:39:42;8.40;86.50
56861;DHT22;42744;51.094;3.490;2023-03-01T13:46:14;8.50;86.80
56861;DHT22;42744;51.094;3.490;2023-03-01T13:48:57;8.40;88.40
56861;DHT22;42744;51.094;3.490;2023-03-01T14:02:41;8.30;90.10
56861;DHT22;42744;51.094;3.490;2023-03-01T14:09:31;8.10;89.70
56861;DHT22;42744;51.094;3.490;2023-03-01T14:19:37;8.10;90.50
56861;DHT22;42744;51.094;3.490;2023-03-01T14:22:25;8.10;90.90
56861;DHT22;42744;51.094;3.490;2023-03-01T14:29:39;7.90;91.40
56861;DHT22;42744;51.094;3.490;2023-03-01T14:47:36;7.80;91.30
56861;DHT22;42744;51.094;3.490;2023-03-01T14:50:43;7.40;90.00
56861;DHT22;42744;51.094;3.490;2023-03-01T14:53:54;7.30;90.20
56861;DHT22;42744;51.094;3.490;2023-03-01T14:56:46;7.40;91.00
56861;DHT22;42744;51.094;3.490;2023-03-01T14:59:52;7.30;90.20
56861;DHT22;42744;51.094;3.490;2023-03-01T15:06:39;7.20;91.40
56861;DHT22;42744;51.094;3.490;2023-03-01T15:13:56;7.10;91.20
56861;DHT22;42744;51.094;3.490;2023-03-01T15:16:51;6.90;91.50
56861;DHT22;42744;51.094;3.490;2023-03-01T15:23:52;6.70;91.40
56861;DHT22;42744;51.094;3.490;2023-03-01T15:26:58;6.70;92.10
56861;DHT22;42744;51.094;3.490;2023-03-01T15:33:34;6.60;91.70
56861;DHT22;42744;51.094;3.490;2023-03-01T15:36:36;6.50;92.70
56861;DHT22;42744;51.094;3.490;2023-03-01T15:39:41;6.50;93.40
56861;DHT22;42744;51.094;3.490;2023-03-01T15:43:14;6.50;93.60
56861;DHT22;42744;51.094;3.490;2023-03-01T15:48:58;6.40;92.90
56861;DHT22;42744;51.094;3.490;2023-03-01T15:51:49;6.30;93.80
56861;DHT22;42744;51.094;3.490;2023-03-01T16:15:37;6.00;94.60
56861;DHT22;42744;51.094;3.490;2023-03-01T16:22:23;5.90;94.10
56861;DHT22;42744;51.094;3.490;2023-03-01T16:25:12;5.90;94.90
56861;DHT22;42744;51.094;3.490;2023-03-01T16:28:17;5.80;94.40
56861;DHT22;42744;51.094;3.490;2023-03-01T16:34:38;5.70;96.10
56861;DHT22;42744;51.094;3.490;2023-03-01T16:44:43;5.60;96.20
56861;DHT22;42744;51.094;3.490;2023-03-01T16:50:41;5.40;97.00
56861;DHT22;42744;51.094;3.490;2023-03-01T16:54:22;5.40;97.50
56861;DHT22;42744;51.094;3.490;2023-03-01T16:57:14;5.30;97.80
56861;DHT22;42744;51.094;3.490;2023-03-01T16:59:59;5.20;97.80
56861;DHT22;42744;51.094;3.490;2023-03-01T17:03:22;5.20;98.30
56861;DHT22;42744;51.094;3.490;2023-03-01T17:06:33;5.10;98.30
56861;DHT22;42744;51.094;3.490;2023-03-01T17:09:02;5.00;98.50
56861;DHT22;42744;51.094;3.490;2023-03-01T17:12:07;5.00;98.80
56861;DHT22;42744;51.094;3.490;2023-03-01T17:14:36;4.90;99.10
56861;DHT22;42744;51.094;3.490;2023-03-01T17:17:18;4.90;99.40
56861;DHT22;42744;51.094;3.490;2023-03-01T17:20:06;4.80;99.30
56861;DHT22;42744;51.094;3.490;2023-03-01T17:22:46;4.70;99.80
56861;DHT22;42744;51.094;3.490;2023-03-01T17:25:30;4.70;99.90
56861;DHT22;42744;51.094;3.490;2023-03-01T17:39:10;4.30;99.90
56861;DHT22;42744;51.094;3.490;2023-03-01T17:42:15;4.20;99.90
56861;DHT22;42744;51.094;3.490;2023-03-01T17:45:17;4.10;99.90
56861;DHT22;42744;51.094;3.490;2023-03-01T17:48:06;4.00;99.90
56861;DHT22;42744;51.094;3.490;2023-03-01T17:51:09;3.90;99.90
56861;DHT22;42744;51.094;3.490;2023-03-01T17:53:47;3.90;99.90
56861;DHT22;42744;51.094;3.490;2023-03-01T18:00:42;3.80;99.90
56861;DHT22;42744;51.094;3.490;2023-03-01T18:03:23;3.70;99.90
56861;DHT22;42744;51.094;3.490;2023-03-01T18:05:58;3.60;99.90
56861;DHT22;42744;51.094;3.490;2023-03-01T18:08:38;3.50;99.90
56861;DHT22;42744;51.094;3.490;2023-03-01T18:11:42;3.50;99.90
56861;DHT22;42744;51.094;3.490;2023-03-01T18:14:14;3.50;99.90
56861;DHT22;42744;51.094;3.490;2023-03-01T18:28:43;3.20;99.90
56861;DHT22;42744;51.094;3.490;2023-03-01T18:35:42;3.10;99.90
56861;DHT22;42744;51.094;3.490;2023-03-01T18:38:55;3.00;99.90
56861;DHT22;42744;51.094;3.490;2023-03-01T18:41:42;3.10;99.90
56861;DHT22;42744;51.094;3.490;2023-03-01T18:44:37;3.00;99.90
56861;DHT22;42744;51.094;3.490;2023-03-01T18:47:16;3.10;99.90
56861;DHT22;42744;51.094;3.490;2023-03-01T18:50:03;3.00;99.90
56861;DHT22;42744;51.094;3.490;2023-03-01T18:53:12;3.00;99.90
56861;DHT22;42744;51.094;3.490;2023-03-01T18:56:13;3.00;99.90
56861;DHT22;42744;51.094;3.490;2023-03-01T18:59:16;2.90;99.90
56861;DHT22;42744;51.094;3.490;2023-03-01T19:02:06;2.90;99.90
56861;DHT22;42744;51.094;3.490;2023-03-01T19:09:06;2.90;99.90
56861;DHT22;42744;51.094;3.490;2023-03-01T19:12:01;2.90;99.90
56861;DHT22;42744;51.094;3.490;2023-03-01T19:14:28;2.80;99.90
56861;DHT22;42744;51.094;3.490;2023-03-01T19:17:24;2.80;99.90
56861;DHT22;42744;51.094;3.490;2023-03-01T19:20:18;2.80;99.90
56861;DHT22;42744;51.094;3.490;2023-03-01T19:23:11;2.80;99.90
56861;DHT22;42744;51.094;3.490;2023-03-01T19:26:26;2.70;99.90
56861;DHT22;42744;51.094;3.490;2023-03-01T19:29:08;2.70;99.90
56861;DHT22;42744;51.094;3.490;2023-03-01T19:32:08;2.70;99.90
56861;DHT22;42744;51.094;3.490;2023-03-01T19:34:50;2.70;99.90
56861;DHT22;42744;51.094;3.490;2023-03-01T19:37:28;2.70;99.90
56861;DHT22;42744;51.094;3.490;2023-03-01T19:40:27;2.60;99.90
56861;DHT22;42744;51.094;3.490;2023-03-01T19:46:16;2.60;99.90
56861;DHT22;42744;51.094;3.490;2023-03-01T19:48:51;2.70;99.90
56861;DHT22;42744;51.094;3.490;2023-03-01T19:51:45;2.60;99.90
56861;DHT22;42744;51.094;3.490;2023-03-01T19:58:01;2.50;99.90
56861;DHT22;42744;51.094;3.490;2023-03-01T20:00:45;2.50;99.90
56861;DHT22;42744;51.094;3.490;2023-03-01T20:11:18;2.40;99.90
56861;DHT22;42744;51.094;3.490;2023-03-01T20:17:02;2.10;99.90
56861;DHT22;42744;51.094;3.490;2023-03-01T20:19:37;2.10;99.90
56861;DHT22;42744;51.094;3.490;2023-03-01T20:22:20;2.00;99.90
56861;DHT22;42744;51.094;3.490;2023-03-01T20:24:48;1.90;99.90
56861;DHT22;42744;51.094;3.490;2023-03-01T20:28:15;1.80;99.90
56861;DHT22;42744;51.094;3.490;2023-03-01T20:38:33;1.40;99.90
56861;DHT22;42744;51.094;3.490;2023-03-01T20:41:14;1.30;99.90
56861;DHT22;42744;51.094;3.490;2023-03-01T20:43:51;1.20;99.90
56861;DHT22;42744;51.094;3.490;2023-03-01T20:46:43;1.10;99.90
56861;DHT22;42744;51.094;3.490;2023-03-01T20:52:59;1.00;99.90
56861;DHT22;42744;51.094;3.490;2023-03-01T20:59:10;0.90;99.90
56861;DHT22;42744;51.094;3.490;2023-03-01T21:02:44;0.90;99.90
56861;DHT22;42744;51.094;3.490;2023-03-01T21:05:55;0.80;99.90
56861;DHT22;42744;51.094;3.490;2023-03-01T21:09:29;0.70;99.90
56861;DHT22;42744;51.094;3.490;2023-03-01T21:16:20;0.50;99.90
56861;DHT22;42744;51.094;3.490;2023-03-01T21:19:34;0.50;99.90
56861;DHT22;42744;51.094;3.490;2023-03-01T21:22:42;0.40;99.90
56861;DHT22;42744;51.094;3.490;2023-03-01T21:25:36;0.30;99.90
56861;DHT22;42744;51.094;3.490;2023-03-01T21:28:56;0.30;99.90
56861;DHT22;42744;51.094;3.490;2023-03-01T21:31:45;0.30;99.90
56861;DHT22;42744;51.094;3.490;2023-03-01T21:52:24;0.20;99.90
56861;DHT22;42744;51.094;3.490;2023-03-01T21:54:55;0.20;99.90
56861;DHT22;42744;51.094;3.490;2023-03-01T21:57:45;0.20;99.90
56861;DHT22;42744;51.094;3.490;2023-03-01T22:00:41;0.20;99.90
56861;DHT22;42744;51.094;3.490;2023-03-01T22:03:32;0.20;99.90
56861;DHT22;42744;51.094;3.490;2023-03-01T22:06:27;0.20;99.90
56861;DHT22;42744;51.094;3.490;2023-03-01T22:22:57;0.10;99.90
56861;DHT22;42744;51.094;3.490;2023-03-01T22:25:44;0.00;99.90
56861;DHT22;42744;51.094;3.490;2023-03-01T22:28:14;0.00;99.90
56861;DHT22;42744;51.094;3.490;2023-03-01T22:30:46;0.00;99.90
56861;DHT22;42744;51.094;3.490;2023-03-01T22:33:39;0.00;99.90
56861;DHT22;42744;51.094;3.490;2023-03-01T22:36:05;-0.10;99.90
56861;DHT22;42744;51.094;3.490;2023-03-01T22:39:05;-0.10;99.90
56861;DHT22;42744;51.094;3.490;2023-03-01T22:42:19;-0.10;99.90
56861;DHT22;42744;51.094;3.490;2023-03-01T22:44:56;0.00;99.90
56861;DHT22;42744;51.094;3.490;2023-03-01T22:47:40;0.10;99.90
56861;DHT22;42744;51.094;3.490;2023-03-01T22:57:32;0.20;99.90
56861;DHT22;42744;51.094;3.490;2023-03-01T23:04:10;0.20;99.90
56861;DHT22;42744;51.094;3.490;2023-03-01T23:10:59;0.20;99.90
56861;DHT22;42744;51.094;3.490;2023-03-01T23:13:43;0.20;99.90
56861;DHT22;42744;51.094;3.490;2023-03-01T23:16:50;0.10;99.90
56861;DHT22;42744;51.094;3.490;2023-03-01T23:23:49;0.00;99.90
56861;DHT22;42744;51.094;3.490;2023-03-01T23:26:49;0.20;99.90
56861;DHT22;42744;51.094;3.490;2023-03-01T23:30:20;0.20;99.90
56861;DHT22;42744;51.094;3.490;2023-03-01T23:33:32;0.30;99.90
56861;DHT22;42744;51.094;3.490;2023-03-01T23:36:46;0.30;99.90
56861;DHT22;42744;51.094;3.490;2023-03-01T23:40:15;0.40;99.90
56861;DHT22;42744;51.094;3.490;2023-03-01T23:47:06;0.30;99.90
56861;DHT22;42744;51.094;3.490;2023-03-01T23:57:27;0.30;99.90
